createdAt,value
2022-12-23T00:00:19.991Z,23.59
2022-12-23T00:02:48.926Z,23.56
2022-12-23T00:05:16.683Z,23.72
2022-12-23T00:07:44.615Z,23.40
2022-12-23T00:10:12.819Z,24.19
2022-12-23T00:12:40.349Z,24.42
2022-12-23T00:15:10.175Z,23.30
2022-12-23T00:17:42.811Z,23.59
2022-12-23T00:20:13.768Z,22.54
2022-12-23T00:22:41.538Z,22.74
2022-12-23T00:25:09.469Z,22.24
2022-12-23T00:27:37.810Z,23.91
2022-12-23T00:30:07.756Z,22.25
2022-12-23T00:32:35.232Z,23.79
2022-12-23T00:35:02.703Z,22.98
2022-12-23T00:37:32.144Z,22.57
2022-12-23T00:40:05.882Z,22.87
2022-12-23T00:42:34.505Z,22.82
2022-12-23T00:45:01.947Z,23.31
2022-12-23T00:47:29.407Z,21.23
2022-12-23T00:49:56.882Z,21.71
2022-12-23T00:52:24.380Z,22.49
2022-12-23T00:54:53.281Z,21.73
2022-12-23T00:57:20.741Z,22.47
2022-12-23T00:59:48.311Z,22.47
2022-12-23T01:02:16.268Z,21.74
2022-12-23T01:04:43.922Z,22.62
2022-12-23T01:07:11.464Z,22.73
2022-12-23T01:09:38.948Z,23.23
2022-12-23T01:12:08.073Z,22.11
2022-12-23T01:14:35.863Z,22.54
2022-12-23T01:17:03.465Z,22.77
2022-12-23T01:19:30.972Z,21.90
2022-12-23T01:21:58.499Z,22.51
2022-12-23T01:24:28.242Z,23.06
2022-12-23T01:26:55.913Z,22.41
2022-12-23T01:29:25.051Z,22.92
2022-12-23T01:31:52.599Z,21.58
2022-12-23T01:34:20.339Z,21.85
2022-12-23T01:36:47.695Z,23.40
2022-12-23T01:39:15.404Z,22.11
2022-12-23T01:41:43.340Z,22.42
2022-12-23T01:44:59.804Z,22.02
2022-12-23T01:47:34.054Z,21.73
2022-12-23T01:50:06.667Z,22.77
2022-12-23T01:52:40.269Z,21.88
2022-12-23T01:55:08.363Z,21.92
2022-12-23T01:57:40.228Z,21.89
2022-12-23T02:00:11.163Z,21.53
2022-12-23T02:02:42.693Z,22.22
2022-12-23T02:05:10.229Z,22.28
2022-12-23T02:07:37.732Z,22.56
2022-12-23T02:10:06.223Z,21.07
2022-12-23T02:12:45.345Z,21.05
2022-12-23T02:15:32.950Z,21.09
2022-12-23T02:18:21.039Z,21.92
2022-12-23T02:21:08.773Z,20.60
2022-12-23T02:24:13.288Z,22.35
2022-12-23T02:27:05.689Z,22.25
2022-12-23T02:30:17.341Z,23.04
2022-12-23T02:32:58.991Z,21.88
2022-12-23T02:35:32.245Z,22.09
2022-12-23T02:38:09.334Z,21.90
2022-12-23T02:40:41.342Z,21.33
2022-12-23T02:43:16.835Z,21.31
2022-12-23T02:45:49.579Z,22.37
2022-12-23T02:48:27.659Z,22.20
2022-12-23T02:51:14.488Z,22.30
2022-12-23T02:53:47.429Z,21.93
2022-12-23T02:56:18.415Z,20.82
2022-12-23T02:58:51.287Z,21.88
2022-12-23T03:01:20.837Z,20.87
2022-12-23T03:03:51.833Z,19.62
2022-12-23T03:06:23.284Z,19.82
2022-12-23T03:08:53.594Z,20.01
2022-12-23T03:11:21.377Z,20.07
2022-12-23T03:14:15.961Z,21.97
2022-12-23T03:16:53.260Z,20.40
2022-12-23T03:19:31.021Z,20.41
2022-12-23T03:22:07.440Z,20.18
2022-12-23T03:24:41.794Z,20.00
2022-12-23T03:27:16.272Z,20.21
2022-12-23T03:29:52.081Z,20.96
2022-12-23T03:32:22.553Z,20.36
2022-12-23T03:34:54.583Z,20.72
2022-12-23T03:37:24.975Z,20.82
2022-12-23T03:39:59.006Z,20.17
2022-12-23T03:42:29.472Z,21.40
2022-12-23T03:45:36.526Z,21.09
2022-12-23T03:47:52.357Z,20.63
2022-12-23T03:50:24.247Z,20.21
2022-12-23T03:52:56.323Z,21.08
2022-12-23T03:55:27.869Z,20.36
2022-12-23T03:58:02.366Z,20.62
2022-12-23T04:00:36.075Z,20.25
2022-12-23T04:03:10.879Z,20.08
2022-12-23T04:05:43.444Z,22.62
2022-12-23T04:08:14.839Z,22.42
2022-12-23T04:10:42.660Z,21.89
2022-12-23T04:13:10.253Z,20.69
2022-12-23T04:15:40.654Z,21.53
2022-12-23T04:18:09.591Z,21.06
2022-12-23T04:20:38.242Z,22.63
2022-12-23T04:23:07.503Z,23.10
2022-12-23T04:25:34.981Z,21.65
2022-12-23T04:28:02.743Z,21.79
2022-12-23T04:30:34.321Z,22.04
2022-12-23T04:33:02.896Z,22.30
2022-12-23T04:35:30.391Z,21.90
2022-12-23T04:37:57.911Z,21.42
2022-12-23T04:40:27.001Z,22.46
2022-12-23T04:42:54.369Z,22.53
2022-12-23T04:45:21.855Z,22.80
2022-12-23T04:47:49.845Z,23.53
2022-12-23T04:50:17.583Z,23.25
2022-12-23T04:52:45.619Z,22.44
2022-12-23T04:55:13.181Z,21.71
2022-12-23T04:57:42.175Z,21.64
2022-12-23T05:00:10.883Z,22.61
2022-12-23T05:02:39.658Z,22.84
2022-12-23T05:05:08.414Z,21.99
2022-12-23T05:07:36.160Z,22.44
2022-12-23T05:10:04.031Z,23.46
2022-12-23T05:12:31.900Z,21.73
2022-12-23T05:15:00.809Z,21.95
2022-12-23T05:17:28.653Z,23.11
2022-12-23T05:19:56.218Z,23.15
2022-12-23T05:22:23.733Z,22.02
2022-12-23T05:24:51.142Z,21.84
2022-12-23T05:27:18.773Z,22.60
2022-12-23T05:29:46.350Z,23.06
2022-12-23T05:32:15.247Z,22.65
2022-12-23T05:34:43.244Z,21.98
2022-12-23T05:37:10.735Z,22.12
2022-12-23T05:39:38.138Z,23.66
2022-12-23T05:42:06.312Z,21.52
2022-12-23T05:44:34.109Z,22.99
2022-12-23T05:47:01.897Z,22.03
2022-12-23T05:49:30.917Z,22.29
2022-12-23T05:51:58.633Z,22.57
2022-12-23T05:54:26.065Z,23.22
2022-12-23T05:56:53.736Z,23.28
2022-12-23T05:59:21.215Z,22.19
2022-12-23T06:01:49.326Z,23.14
2022-12-23T06:04:17.060Z,22.48
2022-12-23T06:06:46.013Z,23.53
2022-12-23T06:09:13.845Z,23.44
2022-12-23T06:11:41.336Z,23.30
2022-12-23T06:14:08.930Z,22.09
2022-12-23T06:16:36.485Z,23.01
2022-12-23T06:19:04.426Z,23.44
2022-12-23T06:21:32.051Z,22.98
2022-12-23T06:24:01.558Z,23.85
2022-12-23T06:26:29.327Z,22.15
2022-12-23T06:28:57.463Z,23.05
2022-12-23T06:31:24.924Z,23.49
2022-12-23T06:33:52.642Z,22.75
2022-12-23T06:36:20.311Z,23.45
2022-12-23T06:38:47.831Z,23.45
2022-12-23T06:41:16.819Z,24.24
2022-12-23T06:43:44.380Z,23.72
2022-12-23T06:46:11.900Z,22.72
2022-12-23T06:48:39.807Z,23.31
2022-12-23T06:51:07.365Z,23.61
2022-12-23T06:53:34.937Z,23.07
2022-12-23T06:56:03.924Z,22.71
2022-12-23T06:58:32.964Z,23.56
2022-12-23T07:01:01.468Z,22.66
2022-12-23T07:03:29.081Z,23.39
2022-12-23T07:05:56.686Z,23.58
2022-12-23T07:08:24.352Z,23.56
2022-12-23T07:10:58.096Z,24.06
2022-12-23T07:13:25.762Z,24.22
2022-12-23T07:15:54.734Z,24.03
2022-12-23T07:18:22.355Z,22.82
2022-12-23T07:20:50.023Z,23.17
2022-12-23T07:23:18.037Z,23.64
2022-12-23T07:25:46.319Z,24.16
2022-12-23T07:28:13.895Z,24.15
2022-12-23T07:30:41.511Z,23.93
2022-12-23T07:33:11.048Z,23.84
2022-12-23T07:35:38.859Z,22.79
2022-12-23T07:38:06.466Z,23.72
2022-12-23T07:40:34.527Z,23.91
2022-12-23T07:43:02.417Z,23.29
2022-12-23T07:45:30.659Z,23.42
2022-12-23T07:48:00.039Z,23.18
2022-12-23T07:50:29.144Z,24.11
2022-12-23T07:52:57.101Z,23.50
2022-12-23T07:55:24.523Z,23.75
2022-12-23T07:57:52.978Z,23.09
2022-12-23T08:00:21.370Z,23.15
2022-12-23T08:02:49.365Z,23.54
2022-12-23T08:05:17.122Z,25.77
2022-12-23T08:07:46.798Z,24.07
2022-12-23T08:10:14.688Z,24.33
2022-12-23T08:12:42.429Z,23.83
2022-12-23T08:15:10.252Z,23.87
2022-12-23T08:17:37.690Z,23.18
2022-12-23T08:20:06.166Z,22.96
2022-12-23T08:22:33.649Z,22.98
2022-12-23T08:25:02.673Z,24.20
2022-12-23T08:27:30.361Z,23.01
2022-12-23T08:29:57.913Z,24.21
2022-12-23T08:32:27.938Z,23.30
2022-12-23T08:34:56.801Z,23.47
2022-12-23T08:37:24.648Z,23.85
2022-12-23T08:39:52.211Z,26.81
2022-12-23T08:42:22.421Z,25.48
2022-12-23T08:44:50.004Z,24.36
2022-12-23T08:47:17.777Z,24.52
2022-12-23T08:49:45.463Z,24.15
2022-12-23T08:52:13.467Z,24.22
2022-12-23T08:54:41.228Z,24.05
2022-12-23T08:57:08.838Z,24.50
2022-12-23T08:59:38.240Z,24.03
2022-12-23T09:02:07.226Z,23.79
2022-12-23T09:04:36.811Z,24.40
2022-12-23T09:07:04.371Z,24.25
2022-12-23T09:09:32.710Z,23.53
2022-12-23T09:12:00.232Z,25.56
2022-12-23T09:14:27.825Z,23.99
2022-12-23T09:16:56.790Z,24.07
2022-12-23T09:19:24.258Z,23.20
2022-12-23T09:21:51.766Z,24.33
2022-12-23T09:24:19.333Z,25.49
2022-12-23T09:26:46.843Z,24.03
2022-12-23T09:29:14.445Z,24.35
2022-12-23T09:31:42.057Z,23.89
2022-12-23T09:34:12.059Z,23.35
2022-12-23T09:36:39.735Z,23.63
2022-12-23T09:39:07.254Z,23.44
2022-12-23T09:41:47.045Z,23.31
2022-12-23T09:44:33.070Z,23.70
2022-12-23T09:47:05.124Z,23.45
2022-12-23T09:49:35.186Z,24.05
2022-12-23T09:52:09.294Z,24.30
2022-12-23T09:54:42.286Z,24.12
2022-12-23T09:57:21.237Z,24.43
2022-12-23T10:00:02.178Z,24.05
2022-12-23T10:02:56.871Z,24.57
2022-12-23T10:05:35.851Z,24.23
2022-12-23T10:08:11.833Z,24.17
2022-12-23T10:10:43.978Z,24.40
2022-12-23T10:13:20.513Z,23.69
2022-12-23T10:15:50.736Z,24.07
2022-12-23T10:18:24.671Z,24.31
2022-12-23T10:20:57.563Z,24.51
2022-12-23T10:23:31.592Z,24.41
2022-12-23T10:26:00.681Z,23.82
2022-12-23T10:28:33.179Z,24.52
2022-12-23T10:31:38.827Z,24.97
2022-12-23T10:34:00.841Z,24.02
2022-12-23T10:36:40.408Z,24.88
2022-12-23T10:39:19.316Z,24.62
2022-12-23T10:42:00.592Z,24.68
2022-12-23T10:45:01.545Z,24.28
2022-12-23T10:47:38.946Z,25.23
2022-12-23T10:50:26.273Z,24.31
2022-12-23T10:52:59.044Z,24.85
2022-12-23T10:55:33.427Z,24.97
2022-12-23T10:58:08.215Z,24.81
2022-12-23T11:00:41.254Z,24.56
2022-12-23T11:03:17.828Z,25.09
2022-12-23T11:05:46.832Z,25.21
2022-12-23T11:08:16.544Z,24.88
2022-12-23T11:10:45.221Z,25.12
2022-12-23T11:13:25.295Z,25.37
2022-12-23T11:15:52.998Z,25.07
2022-12-23T11:18:21.459Z,24.78
2022-12-23T11:21:03.650Z,25.10
2022-12-23T11:23:34.498Z,25.06
2022-12-23T11:26:04.458Z,25.03
2022-12-23T11:28:34.395Z,24.95
2022-12-23T11:31:02.814Z,24.75
2022-12-23T11:33:33.057Z,24.91
2022-12-23T11:36:03.894Z,24.66
2022-12-23T11:38:34.083Z,24.53
2022-12-23T11:41:03.294Z,24.45
2022-12-23T11:43:33.638Z,24.75
2022-12-23T11:46:24.351Z,25.06
2022-12-23T11:49:05.910Z,24.55
2022-12-23T11:51:33.561Z,24.06
2022-12-23T11:54:03.689Z,24.78
2022-12-23T11:56:37.892Z,25.10
2022-12-23T11:59:08.593Z,24.89
2022-12-23T12:01:36.722Z,24.80
2022-12-23T12:04:08.628Z,24.94
2022-12-23T12:06:42.835Z,24.64
2022-12-23T12:09:13.177Z,24.92
2022-12-23T12:11:48.828Z,25.11
2022-12-23T12:14:23.388Z,24.57
2022-12-23T12:16:57.869Z,24.91
2022-12-23T12:19:30.485Z,24.40
2022-12-23T12:22:04.931Z,24.79
2022-12-23T12:24:40.052Z,24.82
2022-12-23T12:27:08.634Z,24.81
2022-12-23T12:29:41.983Z,24.78
2022-12-23T12:32:19.277Z,24.86
2022-12-23T12:34:53.348Z,24.38
2022-12-23T12:37:30.050Z,24.46
2022-12-23T12:40:01.536Z,24.66
2022-12-23T12:42:35.320Z,24.94
2022-12-23T12:45:14.544Z,25.03
2022-12-23T12:47:54.470Z,24.75
2022-12-23T12:50:28.038Z,25.06
2022-12-23T12:53:01.148Z,24.84
2022-12-23T12:55:33.938Z,25.02
2022-12-23T12:58:02.168Z,25.02
2022-12-23T13:00:39.846Z,25.84
2022-12-23T13:03:25.189Z,25.87
2022-12-23T13:06:07.057Z,25.54
2022-12-23T13:09:01.022Z,24.64
2022-12-23T13:11:38.984Z,24.99
2022-12-23T13:14:21.285Z,25.35
2022-12-23T13:16:57.786Z,24.68
2022-12-23T13:19:33.808Z,24.49
2022-12-23T13:22:08.796Z,24.95
2022-12-23T13:24:51.900Z,24.81
2022-12-23T13:27:27.728Z,24.68
2022-12-23T13:30:05.513Z,24.27
2022-12-23T13:33:02.218Z,24.81
2022-12-23T13:35:55.470Z,24.83
2022-12-23T13:38:36.757Z,23.97
2022-12-23T13:41:10.852Z,24.16
2022-12-23T13:43:47.185Z,24.11
2022-12-23T13:46:24.662Z,24.01
2022-12-23T13:48:57.876Z,24.10
2022-12-23T13:51:33.313Z,24.94
2022-12-23T13:54:08.707Z,24.45
2022-12-23T13:56:43.105Z,23.29
2022-12-23T13:59:14.640Z,25.07
2022-12-23T14:01:49.818Z,24.17
2022-12-23T14:04:36.840Z,25.22
2022-12-23T14:07:17.510Z,24.45
2022-12-23T14:09:51.065Z,24.86
2022-12-23T14:12:27.051Z,24.86
2022-12-23T14:15:20.267Z,24.53
2022-12-23T14:18:04.532Z,24.68
2022-12-23T14:20:44.458Z,24.70
2022-12-23T14:23:28.902Z,24.47
2022-12-23T14:26:19.314Z,23.31
2022-12-23T14:29:08.128Z,24.93
2022-12-23T14:31:40.606Z,24.71
2022-12-23T14:34:28.405Z,24.62
2022-12-23T14:37:29.000Z,23.48
2022-12-23T14:39:56.674Z,23.81
2022-12-23T14:42:35.182Z,23.54
2022-12-23T14:45:34.054Z,24.09
2022-12-23T14:48:24.373Z,24.74
2022-12-23T14:51:00.284Z,24.72
2022-12-23T14:53:28.841Z,24.22
2022-12-23T14:56:21.707Z,24.95
2022-12-23T14:59:15.795Z,24.05
2022-12-23T15:01:48.391Z,24.44
2022-12-23T15:04:20.831Z,23.84
2022-12-23T15:06:52.192Z,24.98
2022-12-23T15:09:24.974Z,24.68
2022-12-23T15:11:53.710Z,24.87
2022-12-23T15:14:30.665Z,24.94
2022-12-23T15:16:58.192Z,23.96
2022-12-23T15:19:28.640Z,24.43
2022-12-23T15:22:17.826Z,25.17
2022-12-23T15:24:48.528Z,24.48
2022-12-23T15:27:27.093Z,24.15
2022-12-23T15:29:55.760Z,25.30
2022-12-23T15:32:25.265Z,24.81
2022-12-23T15:35:01.262Z,24.61
2022-12-23T15:37:31.663Z,24.99
2022-12-23T15:40:06.476Z,25.25
2022-12-23T15:42:47.499Z,24.93
2022-12-23T15:45:37.336Z,24.95
2022-12-23T15:48:07.162Z,24.48
2022-12-23T15:50:39.385Z,25.12
2022-12-23T15:53:08.488Z,25.21
2022-12-23T15:55:39.893Z,24.80
2022-12-23T15:58:07.711Z,24.75
2022-12-23T16:00:39.901Z,25.04
2022-12-23T16:03:23.065Z,24.88
2022-12-23T16:05:52.674Z,24.73
2022-12-23T16:08:29.959Z,24.96
2022-12-23T16:11:05.613Z,24.59
2022-12-23T16:13:33.520Z,24.76
2022-12-23T16:16:29.580Z,24.24
2022-12-23T16:18:58.349Z,24.66
2022-12-23T16:21:32.955Z,24.73
2022-12-23T16:24:03.260Z,25.08
2022-12-23T16:26:30.919Z,24.40
2022-12-23T16:29:01.626Z,24.22
2022-12-23T16:31:29.717Z,24.57
2022-12-23T16:33:59.322Z,24.80
2022-12-23T16:36:37.425Z,25.34
2022-12-23T16:39:19.369Z,25.06
2022-12-23T16:41:47.620Z,24.91
2022-12-23T16:44:16.472Z,24.96
2022-12-23T16:46:46.642Z,25.42
2022-12-23T16:49:17.022Z,25.14
2022-12-23T16:51:46.222Z,24.80
2022-12-23T16:54:16.107Z,24.96
2022-12-23T16:56:43.912Z,24.78
2022-12-23T16:59:11.374Z,24.87
2022-12-23T17:01:40.909Z,25.08
2022-12-23T17:04:10.001Z,24.65
2022-12-23T17:06:38.001Z,25.09
2022-12-23T17:09:08.116Z,24.93
2022-12-23T17:11:39.448Z,24.98
2022-12-23T17:14:13.516Z,25.18
2022-12-23T17:16:43.359Z,25.24
2022-12-23T17:19:11.092Z,25.05
2022-12-23T17:21:40.161Z,25.25
2022-12-23T17:24:14.097Z,25.19
2022-12-23T17:26:41.834Z,25.28
2022-12-23T17:29:11.704Z,24.95
2022-12-23T17:31:40.773Z,25.32
2022-12-23T17:34:14.394Z,25.16
2022-12-23T17:36:47.625Z,24.81
2022-12-23T17:39:18.864Z,25.23
2022-12-23T17:41:46.750Z,24.90
2022-12-23T17:44:16.386Z,24.66
2022-12-23T17:46:45.059Z,24.78
2022-12-23T17:49:13.156Z,24.46
2022-12-23T17:51:41.725Z,24.59
2022-12-23T17:54:21.076Z,24.84
2022-12-23T17:56:48.564Z,25.00
2022-12-23T17:59:16.033Z,24.71
2022-12-23T18:01:44.260Z,24.73
2022-12-23T18:04:11.717Z,25.02
2022-12-23T18:06:39.251Z,25.05
2022-12-23T18:09:06.907Z,24.66
2022-12-23T18:11:39.198Z,25.16
2022-12-23T18:14:13.318Z,25.01
2022-12-23T18:16:40.801Z,25.07
2022-12-23T18:19:15.108Z,24.79
2022-12-23T18:21:42.601Z,25.05
2022-12-23T18:24:11.507Z,25.04
2022-12-23T18:26:40.550Z,25.17
2022-12-23T18:29:08.035Z,24.98
2022-12-23T18:31:37.945Z,24.93
2022-12-23T18:34:05.499Z,24.90
2022-12-23T18:36:34.111Z,25.11
2022-12-23T18:39:01.908Z,24.89
2022-12-23T18:41:29.389Z,25.01
2022-12-23T18:43:58.253Z,24.98
2022-12-23T18:46:25.889Z,24.91
2022-12-23T18:48:53.628Z,25.41
2022-12-23T18:51:21.875Z,24.76
2022-12-23T18:53:49.607Z,24.71
2022-12-23T18:56:18.874Z,25.17
2022-12-23T18:58:46.388Z,25.19
2022-12-23T19:01:16.635Z,25.76
2022-12-23T19:03:44.867Z,25.48
2022-12-23T19:06:14.369Z,25.48
2022-12-23T19:08:43.124Z,25.51
2022-12-23T19:11:11.749Z,25.39
2022-12-23T19:13:39.259Z,25.30
2022-12-23T19:16:07.500Z,25.31
2022-12-23T19:18:36.543Z,25.53
2022-12-23T19:21:05.036Z,25.08
2022-12-23T19:23:32.573Z,25.46
2022-12-23T19:25:59.986Z,25.29
2022-12-23T19:28:27.478Z,25.42
2022-12-23T19:30:55.021Z,25.62
2022-12-23T19:33:22.666Z,25.65
2022-12-23T19:35:52.147Z,25.58
2022-12-23T19:38:19.654Z,25.34
2022-12-23T19:40:56.632Z,25.15
2022-12-23T19:43:24.643Z,25.46
2022-12-23T19:45:57.795Z,25.38
2022-12-23T19:48:25.565Z,25.57
2022-12-23T19:50:58.825Z,25.35
2022-12-23T19:53:26.699Z,25.72
2022-12-23T19:55:59.171Z,25.22
2022-12-23T19:58:27.947Z,25.35
2022-12-23T20:01:06.557Z,25.46
2022-12-23T20:03:34.174Z,25.52
2022-12-23T20:06:03.801Z,25.32
2022-12-23T20:08:31.434Z,25.24
2022-12-23T20:11:10.855Z,25.32
2022-12-23T20:13:38.945Z,25.41
2022-12-23T20:16:07.424Z,25.75
2022-12-23T20:18:35.204Z,25.58
2022-12-23T20:21:04.424Z,25.19
2022-12-23T20:23:32.127Z,25.14
2022-12-23T20:25:59.642Z,25.29
2022-12-23T20:28:27.158Z,25.71
2022-12-23T20:31:05.669Z,25.61
2022-12-23T20:33:33.445Z,25.59
2022-12-23T20:36:00.876Z,25.21
2022-12-23T20:38:29.836Z,25.67
2022-12-23T20:40:57.275Z,25.28
2022-12-23T20:43:24.752Z,25.50
2022-12-23T20:45:52.297Z,25.52
2022-12-23T20:48:19.925Z,25.16
2022-12-23T20:50:47.433Z,25.69
2022-12-23T20:53:15.151Z,25.27
2022-12-23T20:55:44.544Z,25.63
2022-12-23T20:58:11.995Z,25.49
2022-12-23T21:00:39.447Z,25.56
2022-12-23T21:03:10.586Z,25.30
2022-12-23T21:05:38.428Z,25.43
2022-12-23T21:08:05.965Z,25.74
2022-12-23T21:10:33.919Z,25.21
2022-12-23T21:13:03.635Z,25.62
2022-12-23T21:15:31.655Z,25.47
2022-12-23T21:17:59.355Z,25.14
2022-12-23T21:20:26.908Z,25.80
2022-12-23T21:22:54.447Z,25.80
2022-12-23T21:25:22.039Z,25.00
2022-12-23T21:27:51.148Z,25.19
2022-12-23T21:30:20.255Z,25.10
2022-12-23T21:32:47.945Z,25.35
2022-12-23T21:35:15.617Z,25.51
2022-12-23T21:37:43.079Z,25.29
2022-12-23T21:40:11.810Z,25.38
2022-12-23T21:42:39.308Z,25.34
2022-12-23T21:45:07.962Z,25.59
2022-12-23T21:47:36.960Z,25.29
2022-12-23T21:50:05.064Z,25.71
2022-12-23T21:52:32.600Z,25.27
2022-12-23T21:55:00.168Z,25.46
2022-12-23T21:57:27.627Z,25.45
2022-12-23T21:59:55.145Z,25.22
2022-12-23T22:02:23.255Z,25.45
2022-12-23T22:04:52.295Z,25.81
2022-12-23T22:07:19.724Z,25.53
2022-12-23T22:09:47.333Z,25.47
2022-12-23T22:12:14.778Z,25.62
2022-12-23T22:14:42.300Z,25.28
2022-12-23T22:17:10.335Z,25.64
2022-12-23T22:19:37.741Z,25.53
2022-12-23T22:22:06.555Z,25.67
2022-12-23T22:24:34.080Z,25.59
2022-12-23T22:27:01.547Z,25.73
2022-12-23T22:29:29.092Z,25.77
2022-12-23T22:31:56.600Z,25.64
2022-12-23T22:34:24.160Z,25.79
2022-12-23T22:36:51.850Z,25.67
2022-12-23T22:39:21.966Z,25.76
2022-12-23T22:41:50.740Z,25.64
2022-12-23T22:44:19.453Z,25.72
2022-12-23T22:46:47.191Z,25.49
2022-12-23T22:49:15.705Z,25.77
2022-12-23T22:51:43.868Z,25.06
2022-12-23T22:54:11.370Z,25.72
2022-12-23T22:56:40.802Z,25.58
2022-12-23T22:59:12.912Z,25.80
2022-12-23T23:01:40.409Z,25.62
2022-12-23T23:04:07.941Z,25.46
2022-12-23T23:06:37.419Z,25.91
2022-12-23T23:09:06.331Z,25.56
2022-12-23T23:11:33.877Z,26.00
2022-12-23T23:14:02.786Z,25.05
2022-12-23T23:16:30.555Z,25.48
2022-12-23T23:18:58.913Z,25.73
2022-12-23T23:21:26.744Z,25.85
2022-12-23T23:23:54.269Z,24.99
2022-12-23T23:26:22.011Z,25.69
2022-12-23T23:28:49.474Z,25.67
2022-12-23T23:34:06.411Z,25.75
2022-12-23T23:36:34.052Z,25.29
2022-12-23T23:39:01.649Z,26.39
2022-12-23T23:41:29.611Z,26.52
2022-12-23T23:43:57.060Z,26.07
2022-12-23T23:46:26.174Z,25.96
2022-12-23T23:48:53.706Z,25.89
2022-12-23T23:51:21.207Z,25.80
2022-12-23T23:53:48.701Z,25.74
2022-12-23T23:56:20.402Z,25.75
2022-12-23T23:58:51.372Z,25.51
